createdAt,value
2023-04-17T00:00:27.400Z,28.93
2023-04-17T00:02:56.536Z,31.27
2023-04-17T00:05:26.483Z,29.77
2023-04-17T00:07:54.403Z,29.60
2023-04-17T00:10:22.249Z,30.07
2023-04-17T00:12:50.201Z,29.10
2023-04-17T00:15:18.010Z,30.13
2023-04-17T00:17:45.712Z,29.20
2023-04-17T00:20:14.903Z,28.87
2023-04-17T00:22:42.697Z,28.77
2023-04-17T00:25:13.037Z,28.97
2023-04-17T00:27:40.779Z,29.53
2023-04-17T00:30:09.613Z,29.43
2023-04-17T00:32:37.224Z,30.53
2023-04-17T00:35:05.245Z,28.80
2023-04-17T00:37:35.676Z,31.20
2023-04-17T00:40:03.839Z,31.70
2023-04-17T00:42:31.455Z,31.10
2023-04-17T00:44:59.095Z,30.83
2023-04-17T00:47:27.395Z,31.40
2023-04-17T00:49:55.360Z,29.53
2023-04-17T00:52:29.694Z,29.33
2023-04-17T00:55:00.120Z,30.73
2023-04-17T00:57:28.029Z,31.80
2023-04-17T00:59:57.856Z,29.07
2023-04-17T01:02:26.076Z,31.77
2023-04-17T01:04:53.829Z,29.53
2023-04-17T01:07:21.759Z,31.13
2023-04-17T01:09:49.437Z,30.67
2023-04-17T01:12:19.931Z,32.00
2023-04-17T01:14:47.926Z,29.03
2023-04-17T01:17:15.575Z,30.83
2023-04-17T01:19:43.235Z,29.70
2023-04-17T01:22:10.964Z,28.10
2023-04-17T01:24:40.146Z,30.40
2023-04-17T01:27:07.813Z,31.20
2023-04-17T01:29:35.406Z,29.70
2023-04-17T01:32:03.145Z,31.80
2023-04-17T01:34:31.213Z,28.80
2023-04-17T01:36:58.819Z,29.47
2023-04-17T01:39:27.019Z,28.93
2023-04-17T01:41:56.491Z,29.73
2023-04-17T01:44:24.489Z,31.50
2023-04-17T01:46:52.328Z,32.43
2023-04-17T01:49:20.607Z,31.43
2023-04-17T01:51:48.638Z,30.77
2023-04-17T01:54:16.489Z,30.27
2023-04-17T01:56:44.137Z,30.73
2023-04-17T01:59:13.294Z,31.80
2023-04-17T02:01:41.324Z,30.57
2023-04-17T02:04:09.061Z,31.43
2023-04-17T02:06:36.835Z,31.30
2023-04-17T02:09:04.912Z,31.27
2023-04-17T02:11:32.689Z,32.30
2023-04-17T02:14:00.538Z,31.60
2023-04-17T02:16:31.761Z,31.83
2023-04-17T02:18:59.514Z,30.50
2023-04-17T02:21:28.276Z,29.37
2023-04-17T02:23:56.001Z,31.43
2023-04-17T02:26:23.612Z,30.63
2023-04-17T02:28:51.223Z,29.57
2023-04-17T02:31:18.884Z,31.37
2023-04-17T02:33:47.831Z,32.53
2023-04-17T02:36:16.160Z,33.87
2023-04-17T02:38:43.767Z,32.23
2023-04-17T02:41:11.385Z,29.67
2023-04-17T02:43:39.053Z,30.00
2023-04-17T02:46:06.776Z,32.60
2023-04-17T02:48:34.439Z,33.00
2023-04-17T02:51:03.366Z,29.10
2023-04-17T02:53:30.991Z,32.37
2023-04-17T02:55:58.956Z,30.83
2023-04-17T02:58:26.513Z,31.83
2023-04-17T03:01:01.297Z,31.20
2023-04-17T03:03:31.160Z,29.83
2023-04-17T03:05:58.977Z,32.37
2023-04-17T03:08:32.507Z,36.90
2023-04-17T03:11:00.836Z,33.70
2023-04-17T03:13:28.466Z,31.93
2023-04-17T03:15:56.272Z,32.57
2023-04-17T03:18:23.955Z,34.43
2023-04-17T03:20:52.743Z,30.30
2023-04-17T03:23:20.345Z,30.07
2023-04-17T03:25:49.375Z,30.23
2023-04-17T03:28:17.343Z,29.90
2023-04-17T03:30:45.021Z,31.10
2023-04-17T03:33:12.611Z,31.17
2023-04-17T03:35:40.412Z,30.33
2023-04-17T03:38:08.034Z,29.37
2023-04-17T03:40:35.866Z,29.80
2023-04-17T03:43:04.948Z,29.60
2023-04-17T03:45:32.592Z,30.50
2023-04-17T03:48:00.376Z,29.67
2023-04-17T03:50:28.086Z,30.73
2023-04-17T03:52:55.836Z,29.87
2023-04-17T03:55:23.505Z,32.13
2023-04-17T03:57:51.692Z,33.93
2023-04-17T04:00:21.819Z,32.53
2023-04-17T04:02:49.705Z,28.87
2023-04-17T04:05:17.577Z,32.43
2023-04-17T04:07:45.246Z,31.97
2023-04-17T04:10:12.883Z,29.67
2023-04-17T04:12:40.552Z,30.33
2023-04-17T04:15:09.609Z,29.37
2023-04-17T04:17:38.581Z,28.57
2023-04-17T04:20:08.314Z,29.50
2023-04-17T04:22:36.181Z,30.03
2023-04-17T04:25:03.926Z,29.07
2023-04-17T04:27:32.870Z,29.10
2023-04-17T04:30:01.857Z,27.60
2023-04-17T04:32:29.796Z,28.63
2023-04-17T04:35:01.539Z,26.77
2023-04-17T04:37:31.624Z,26.47
2023-04-17T04:40:02.118Z,28.50
2023-04-17T04:42:29.951Z,26.17
2023-04-17T04:44:57.538Z,29.13
2023-04-17T04:47:25.149Z,27.53
2023-04-17T04:49:52.745Z,29.53
2023-04-17T04:52:21.677Z,26.60
2023-04-17T04:54:49.665Z,27.90
2023-04-17T04:57:17.387Z,27.50
2023-04-17T04:59:45.010Z,28.67
2023-04-17T05:02:12.805Z,28.90
2023-04-17T05:04:41.284Z,28.57
2023-04-17T05:07:09.047Z,26.37
2023-04-17T05:09:38.362Z,28.50
2023-04-17T05:12:06.541Z,26.87
2023-04-17T05:14:34.120Z,28.60
2023-04-17T05:17:01.880Z,26.80
2023-04-17T05:19:30.315Z,26.93
2023-04-17T05:21:57.930Z,27.07
2023-04-17T05:24:25.590Z,24.63
2023-04-17T05:26:54.552Z,27.77
2023-04-17T05:29:24.609Z,26.20
2023-04-17T05:31:52.712Z,25.60
2023-04-17T05:34:20.454Z,23.57
2023-04-17T05:36:48.291Z,24.00
2023-04-17T05:39:16.035Z,23.67
2023-04-17T05:41:43.643Z,23.10
2023-04-17T05:44:12.613Z,20.93
2023-04-17T05:46:40.191Z,22.00
2023-04-17T05:49:09.335Z,21.17
2023-04-17T05:51:37.124Z,21.10
2023-04-17T05:54:04.860Z,18.30
2023-04-17T05:56:32.497Z,18.80
2023-04-17T05:59:00.107Z,19.80
2023-04-17T06:01:30.044Z,19.00
2023-04-17T06:03:57.873Z,18.10
2023-04-17T06:06:26.462Z,20.93
2023-04-17T06:08:54.492Z,18.60
2023-04-17T06:11:22.418Z,21.20
2023-04-17T06:13:50.103Z,17.27
2023-04-17T06:16:17.990Z,16.20
2023-04-17T06:18:47.200Z,16.47
2023-04-17T06:21:14.827Z,15.40
2023-04-17T06:23:42.427Z,16.07
2023-04-17T06:26:10.971Z,16.37
2023-04-17T06:28:38.714Z,16.50
2023-04-17T06:31:06.975Z,17.27
2023-04-17T06:33:34.603Z,14.43
2023-04-17T06:36:03.692Z,16.10
2023-04-17T06:38:31.316Z,16.70
2023-04-17T06:40:59.214Z,15.67
2023-04-17T06:43:27.046Z,17.83
2023-04-17T06:45:54.683Z,14.50
2023-04-17T06:48:22.393Z,16.20
2023-04-17T06:50:50.224Z,15.27
2023-04-17T06:53:19.511Z,12.87
2023-04-17T06:55:47.766Z,14.90
2023-04-17T06:58:15.534Z,16.73
2023-04-17T07:00:43.313Z,13.10
2023-04-17T07:03:11.351Z,13.97
2023-04-17T07:05:39.080Z,14.03
2023-04-17T07:08:07.080Z,13.03
2023-04-17T07:10:36.324Z,12.50
2023-04-17T07:13:03.939Z,13.33
2023-04-17T07:15:31.922Z,14.30
2023-04-17T07:18:00.067Z,13.87
2023-04-17T07:20:27.988Z,14.53
2023-04-17T07:22:56.666Z,14.93
2023-04-17T07:25:24.541Z,14.13
2023-04-17T07:27:56.833Z,13.20
2023-04-17T07:30:24.744Z,13.10
2023-04-17T07:32:52.503Z,14.47
2023-04-17T07:35:20.448Z,14.33
2023-04-17T07:37:48.028Z,15.97
2023-04-17T07:40:16.412Z,15.17
2023-04-17T07:42:44.089Z,13.47
2023-04-17T07:45:13.349Z,12.33
2023-04-17T07:47:41.209Z,13.30
2023-04-17T07:50:09.583Z,13.60
2023-04-17T07:52:37.236Z,13.33
2023-04-17T07:55:05.384Z,14.80
2023-04-17T07:57:33.032Z,12.83
2023-04-17T08:00:00.724Z,13.03
2023-04-17T08:02:29.849Z,13.30
2023-04-17T08:04:58.279Z,13.60
2023-04-17T08:07:25.981Z,13.40
2023-04-17T08:09:54.203Z,12.00
2023-04-17T08:12:21.783Z,12.53
2023-04-17T08:14:49.487Z,12.80
2023-04-17T08:17:20.124Z,12.93
2023-04-17T08:19:50.240Z,13.80
2023-04-17T08:22:19.625Z,13.50
2023-04-17T08:24:47.289Z,12.87
2023-04-17T08:27:15.778Z,14.33
2023-04-17T08:29:44.825Z,13.13
2023-04-17T08:32:14.520Z,14.23
2023-04-17T08:34:43.475Z,14.20
2023-04-17T08:37:12.635Z,15.23
2023-04-17T08:39:40.384Z,14.03
2023-04-17T08:42:14.761Z,14.33
2023-04-17T08:44:45.578Z,13.10
2023-04-17T08:47:14.171Z,12.73
2023-04-17T08:49:43.791Z,13.37
2023-04-17T08:52:13.091Z,14.00
2023-04-17T08:54:41.075Z,15.37
2023-04-17T08:57:08.775Z,12.90
2023-04-17T08:59:36.542Z,12.93
2023-04-17T09:02:06.819Z,15.73
2023-04-17T09:04:39.570Z,13.60
2023-04-17T09:07:08.171Z,16.83
2023-04-17T09:09:49.316Z,14.20
2023-04-17T09:12:17.266Z,12.40
2023-04-17T09:14:45.472Z,13.77
2023-04-17T09:17:15.101Z,13.40
2023-04-17T09:20:03.986Z,12.63
2023-04-17T09:22:31.725Z,12.67
2023-04-17T09:25:01.361Z,13.30
2023-04-17T09:27:29.928Z,14.17
2023-04-17T09:29:59.529Z,13.57
2023-04-17T09:32:27.390Z,14.40
2023-04-17T09:34:56.918Z,14.27
2023-04-17T09:37:24.981Z,14.93
2023-04-17T09:40:02.161Z,15.30
2023-04-17T09:42:29.854Z,15.13
2023-04-17T09:44:57.776Z,14.97
2023-04-17T09:47:25.457Z,15.20
2023-04-17T09:49:54.064Z,17.57
2023-04-17T09:52:23.565Z,16.37
2023-04-17T09:54:53.776Z,18.30
2023-04-17T09:57:23.177Z,17.30
2023-04-17T09:59:51.183Z,16.77
2023-04-17T10:02:22.486Z,20.53
2023-04-17T10:04:50.181Z,21.60
2023-04-17T10:07:18.634Z,23.50
2023-04-17T10:09:46.449Z,26.10
2023-04-17T10:12:16.344Z,25.03
2023-04-17T10:14:48.805Z,27.17
2023-04-17T10:17:28.425Z,27.43
2023-04-17T10:19:56.556Z,25.90
2023-04-17T10:22:31.660Z,28.60
2023-04-17T10:25:19.089Z,23.67
2023-04-17T10:28:06.249Z,22.50
2023-04-17T10:30:55.573Z,18.10
2023-04-17T10:33:25.803Z,17.33
2023-04-17T10:35:54.274Z,15.87
2023-04-17T10:38:33.577Z,12.50
2023-04-17T10:41:04.349Z,11.00
2023-04-17T10:43:32.862Z,13.77
2023-04-17T10:46:06.510Z,12.00
2023-04-17T10:48:36.264Z,12.63
2023-04-17T10:51:37.722Z,11.60
2023-04-17T10:54:06.410Z,10.63
2023-04-17T10:56:38.914Z,12.43
2023-04-17T10:59:07.968Z,12.67
2023-04-17T11:01:41.306Z,13.83
2023-04-17T11:04:10.525Z,14.47
2023-04-17T11:06:40.434Z,12.20
2023-04-17T11:09:10.457Z,12.47
2023-04-17T11:11:44.064Z,17.33
2023-04-17T11:14:14.848Z,13.27
2023-04-17T11:16:46.457Z,16.33
2023-04-17T11:19:19.296Z,13.70
2023-04-17T11:21:49.272Z,17.57
2023-04-17T11:24:23.903Z,13.33
2023-04-17T11:26:51.531Z,12.87
2023-04-17T11:29:20.685Z,14.70
2023-04-17T11:31:52.024Z,14.73
2023-04-17T11:34:20.228Z,14.00
2023-04-17T11:36:50.424Z,14.63
2023-04-17T11:39:18.824Z,13.70
2023-04-17T11:41:49.569Z,17.73
2023-04-17T11:44:20.045Z,13.63
2023-04-17T11:46:52.671Z,12.10
2023-04-17T11:49:26.364Z,14.50
2023-04-17T11:51:54.202Z,12.20
2023-04-17T11:54:25.701Z,13.37
2023-04-17T11:57:01.316Z,14.10
2023-04-17T11:59:32.979Z,14.13
2023-04-17T12:02:02.375Z,13.10
2023-04-17T12:04:33.648Z,15.37
2023-04-17T12:07:02.157Z,15.10
2023-04-17T12:09:31.780Z,13.13
2023-04-17T12:12:00.227Z,14.63
2023-04-17T12:14:27.948Z,20.33
2023-04-17T12:16:55.569Z,14.87
2023-04-17T12:19:26.644Z,16.10
2023-04-17T12:21:55.073Z,13.83
2023-04-17T12:24:24.771Z,18.17
2023-04-17T12:26:53.263Z,13.23
2023-04-17T12:29:32.230Z,14.37
2023-04-17T12:32:10.240Z,14.20
2023-04-17T12:34:39.677Z,14.90
2023-04-17T12:37:07.365Z,14.47
2023-04-17T12:39:34.992Z,14.43
2023-04-17T12:42:02.593Z,19.30
2023-04-17T12:44:30.242Z,12.67
2023-04-17T12:46:57.917Z,12.67
2023-04-17T12:49:25.569Z,13.87
2023-04-17T12:51:54.756Z,11.70
2023-04-17T12:54:22.323Z,12.83
2023-04-17T12:56:49.924Z,13.10
2023-04-17T12:59:17.630Z,15.87
2023-04-17T13:01:45.799Z,14.37
2023-04-17T13:04:14.219Z,14.23
2023-04-17T13:06:42.512Z,21.77
2023-04-17T13:09:11.675Z,13.83
2023-04-17T13:11:39.437Z,15.60
2023-04-17T13:14:07.448Z,14.83
2023-04-17T13:16:35.119Z,12.93
2023-04-17T13:19:02.843Z,13.73
2023-04-17T13:21:30.867Z,15.30
2023-04-17T13:23:58.508Z,13.67
2023-04-17T13:26:27.620Z,14.60
2023-04-17T13:28:55.225Z,13.50
2023-04-17T13:31:24.580Z,14.40
2023-04-17T13:33:52.293Z,13.23
2023-04-17T13:36:19.936Z,14.50
2023-04-17T13:38:47.535Z,16.57
2023-04-17T13:41:15.182Z,14.80
2023-04-17T13:43:44.405Z,13.37
2023-04-17T13:46:15.859Z,13.13
2023-04-17T13:48:43.565Z,13.47
2023-04-17T13:51:11.423Z,12.93
2023-04-17T13:53:39.022Z,14.47
2023-04-17T13:56:07.500Z,19.10
2023-04-17T13:58:35.673Z,14.70
2023-04-17T14:01:04.759Z,14.83
2023-04-17T14:03:32.470Z,22.77
2023-04-17T14:06:00.459Z,15.60
2023-04-17T14:08:28.034Z,15.13
2023-04-17T14:10:55.709Z,15.83
2023-04-17T14:13:23.322Z,15.10
2023-04-17T14:15:53.535Z,15.70
2023-04-17T14:18:24.654Z,15.63
2023-04-17T14:20:53.965Z,16.60
2023-04-17T14:23:21.633Z,14.43
2023-04-17T14:25:49.403Z,16.40
2023-04-17T14:28:18.387Z,19.03
2023-04-17T14:30:46.004Z,15.80
2023-04-17T14:33:13.612Z,19.27
2023-04-17T14:35:42.717Z,15.00
2023-04-17T14:38:10.414Z,15.53
2023-04-17T14:40:38.232Z,16.60
2023-04-17T14:43:05.859Z,14.33
2023-04-17T14:45:34.513Z,20.13
2023-04-17T14:48:02.275Z,14.37
2023-04-17T14:50:29.923Z,16.03
2023-04-17T14:52:59.026Z,13.23
2023-04-17T14:55:26.862Z,13.60
2023-04-17T14:57:55.530Z,14.27
2023-04-17T15:00:23.681Z,14.60
2023-04-17T15:02:51.400Z,15.10
2023-04-17T15:05:20.856Z,14.43
2023-04-17T15:07:48.934Z,15.13
2023-04-17T15:10:17.993Z,15.40
2023-04-17T15:12:45.656Z,15.17
2023-04-17T15:15:13.380Z,15.57
2023-04-17T15:17:41.034Z,14.77
2023-04-17T15:20:09.310Z,13.03
2023-04-17T15:22:36.887Z,15.60
2023-04-17T15:25:05.080Z,15.30
2023-04-17T15:27:34.375Z,13.87
2023-04-17T15:30:04.849Z,15.00
2023-04-17T15:32:32.499Z,14.20
2023-04-17T15:35:00.119Z,15.23
2023-04-17T15:37:27.708Z,16.20
2023-04-17T15:39:55.686Z,16.00
2023-04-17T15:42:23.542Z,14.83
2023-04-17T15:44:53.035Z,14.57
2023-04-17T15:47:20.667Z,15.67
2023-04-17T15:49:48.532Z,23.87
2023-04-17T15:52:16.404Z,14.87
2023-04-17T15:54:44.022Z,14.40
2023-04-17T15:57:11.679Z,14.40
2023-04-17T15:59:39.275Z,18.40
2023-04-17T16:02:08.332Z,13.60
2023-04-17T16:04:36.164Z,13.87
2023-04-17T16:07:04.334Z,13.43
2023-04-17T16:09:31.939Z,15.33
2023-04-17T16:11:59.549Z,13.13
2023-04-17T16:14:27.871Z,13.70
2023-04-17T16:16:55.931Z,15.77
2023-04-17T16:19:28.336Z,12.53
2023-04-17T16:21:56.797Z,13.70
2023-04-17T16:24:24.711Z,14.37
2023-04-17T16:26:54.436Z,15.30
2023-04-17T16:29:22.287Z,13.27
2023-04-17T16:31:49.937Z,15.00
2023-04-17T16:34:17.809Z,14.07
2023-04-17T16:36:46.804Z,16.97
2023-04-17T16:39:14.686Z,17.37
2023-04-17T16:41:42.511Z,21.50
2023-04-17T16:44:10.359Z,17.20
2023-04-17T16:46:58.706Z,19.90
2023-04-17T16:49:25.728Z,16.27
2023-04-17T16:51:55.235Z,16.20
2023-04-17T16:54:22.807Z,16.87
2023-04-17T16:56:50.847Z,17.53
2023-04-17T16:59:18.456Z,13.87
2023-04-17T17:01:46.979Z,16.00
2023-04-17T17:04:15.784Z,14.03
2023-04-17T17:06:43.431Z,19.60
2023-04-17T17:09:12.781Z,14.70
2023-04-17T17:11:40.674Z,15.37
2023-04-17T17:14:08.306Z,14.57
2023-04-17T17:16:36.715Z,15.07
2023-04-17T17:19:05.181Z,15.70
2023-04-17T17:21:32.941Z,13.93
2023-04-17T17:24:00.577Z,14.03
2023-04-17T17:26:29.737Z,14.83
2023-04-17T17:28:57.326Z,13.50
2023-04-17T17:31:25.048Z,13.20
2023-04-17T17:33:54.457Z,13.90
2023-04-17T17:36:22.553Z,13.00
2023-04-17T17:38:55.407Z,15.20
2023-04-17T17:41:23.618Z,15.30
2023-04-17T17:43:55.966Z,14.27
2023-04-17T17:46:24.141Z,15.53
2023-04-17T17:48:51.849Z,16.20
2023-04-17T17:51:19.997Z,19.13
2023-04-17T17:53:47.589Z,18.60
2023-04-17T17:56:15.236Z,16.73
2023-04-17T17:58:42.845Z,17.37
2023-04-17T18:01:11.919Z,14.87
2023-04-17T18:03:39.749Z,16.90
2023-04-17T18:06:07.744Z,17.57
2023-04-17T18:08:35.800Z,16.53
2023-04-17T18:11:03.575Z,16.43
2023-04-17T18:13:31.229Z,15.73
2023-04-17T18:15:59.045Z,16.30
2023-04-17T18:18:28.036Z,18.33
2023-04-17T18:20:55.695Z,15.97
2023-04-17T18:23:23.444Z,18.67
2023-04-17T18:25:57.970Z,16.87
2023-04-17T18:28:26.019Z,16.80
2023-04-17T18:30:53.820Z,18.43
2023-04-17T18:33:21.739Z,16.30
2023-04-17T18:35:50.953Z,18.30
2023-04-17T18:38:18.529Z,17.93
2023-04-17T18:40:46.114Z,23.53
2023-04-17T18:43:13.766Z,20.43
2023-04-17T18:45:41.488Z,19.10
2023-04-17T18:48:09.107Z,19.53
2023-04-17T18:50:38.331Z,19.77
2023-04-17T18:53:07.470Z,24.13
2023-04-17T18:55:37.186Z,20.30
2023-04-17T18:58:05.188Z,20.07
2023-04-17T19:00:33.018Z,20.13
2023-04-17T19:03:00.687Z,19.47
2023-04-17T19:05:28.348Z,19.73
2023-04-17T19:07:55.940Z,19.50
2023-04-17T19:10:24.972Z,19.80
2023-04-17T19:12:52.577Z,22.53
2023-04-17T19:15:21.001Z,18.23
2023-04-17T19:17:48.599Z,23.07
2023-04-17T19:20:16.765Z,19.77
2023-04-17T19:22:44.476Z,21.33
2023-04-17T19:25:12.432Z,20.30
2023-04-17T19:27:41.377Z,21.07
2023-04-17T19:30:10.114Z,22.50
2023-04-17T19:32:37.831Z,20.50
2023-04-17T19:35:07.134Z,24.33
2023-04-17T19:37:34.879Z,20.93
2023-04-17T19:40:04.352Z,21.47
2023-04-17T19:42:36.794Z,23.67
2023-04-17T19:45:06.935Z,22.23
2023-04-17T19:47:34.593Z,22.60
2023-04-17T19:50:02.709Z,22.17
2023-04-17T19:52:30.260Z,25.87
2023-04-17T19:54:57.819Z,24.93
2023-04-17T19:57:25.407Z,25.67
2023-04-17T19:59:53.032Z,28.00
2023-04-17T20:02:22.071Z,26.17
2023-04-17T20:04:49.772Z,29.00
2023-04-17T20:07:17.344Z,30.53
2023-04-17T20:09:45.002Z,31.67
2023-04-17T20:12:12.599Z,32.67
2023-04-17T20:14:40.259Z,28.80
2023-04-17T20:17:08.296Z,28.53
2023-04-17T20:19:37.321Z,27.53
2023-04-17T20:22:04.950Z,29.00
2023-04-17T20:24:32.565Z,29.67
2023-04-17T20:27:00.141Z,25.37
2023-04-17T20:29:28.101Z,27.60
2023-04-17T20:31:56.264Z,30.70
2023-04-17T20:34:24.233Z,27.83
2023-04-17T20:36:53.217Z,29.13
2023-04-17T20:39:20.869Z,32.93
2023-04-17T20:41:48.583Z,28.13
2023-04-17T20:44:18.560Z,26.77
2023-04-17T20:46:46.206Z,26.50
2023-04-17T20:49:14.100Z,31.50
2023-04-17T20:51:41.785Z,29.10
2023-04-17T20:54:11.354Z,31.07
2023-04-17T20:56:39.126Z,28.93
2023-04-17T20:59:06.779Z,25.87
2023-04-17T21:01:35.871Z,28.23
2023-04-17T21:04:03.791Z,30.00
2023-04-17T21:06:31.413Z,34.67
2023-04-17T21:08:58.990Z,28.83
2023-04-17T21:11:27.996Z,28.83
2023-04-17T21:13:55.653Z,46.80
2023-04-17T21:16:23.274Z,30.40
2023-04-17T21:18:50.937Z,30.50
2023-04-17T21:21:18.613Z,28.53
2023-04-17T21:23:46.223Z,28.80
2023-04-17T21:26:13.873Z,28.73
2023-04-17T21:28:43.597Z,30.30
2023-04-17T21:31:14.714Z,25.30
2023-04-17T21:33:42.312Z,26.17
2023-04-17T21:36:10.604Z,29.40
2023-04-17T21:38:38.184Z,26.73
2023-04-17T21:41:05.836Z,25.20
2023-04-17T21:43:33.497Z,29.00
2023-04-17T21:46:02.587Z,28.40
2023-04-17T21:48:30.269Z,29.23
2023-04-17T21:51:03.325Z,23.93
2023-04-17T21:53:30.954Z,24.17
2023-04-17T21:55:58.543Z,30.37
2023-04-17T21:58:26.213Z,27.17
2023-04-17T22:00:55.074Z,29.63
2023-04-17T22:03:24.195Z,27.77
2023-04-17T22:05:53.981Z,27.23
2023-04-17T22:08:21.592Z,27.30
2023-04-17T22:10:49.520Z,32.37
2023-04-17T22:13:17.228Z,28.70
2023-04-17T22:15:45.555Z,29.57
2023-04-17T22:18:13.414Z,28.87
2023-04-17T22:20:42.395Z,26.00
2023-04-17T22:23:10.003Z,24.60
2023-04-17T22:25:37.646Z,30.90
2023-04-17T22:28:05.443Z,27.43
2023-04-17T22:30:33.067Z,25.57
2023-04-17T22:33:01.300Z,27.93
2023-04-17T22:35:28.953Z,33.13
2023-04-17T22:37:58.222Z,30.20
2023-04-17T22:40:25.861Z,30.33
2023-04-17T22:42:53.515Z,26.40
2023-04-17T22:45:21.062Z,27.33
2023-04-17T22:47:48.704Z,32.90
2023-04-17T22:50:17.832Z,27.20
2023-04-17T22:52:45.569Z,29.87
2023-04-17T22:55:14.941Z,29.27
2023-04-17T22:57:42.559Z,27.70
2023-04-17T23:00:11.453Z,29.80
2023-04-17T23:02:39.284Z,25.23
2023-04-17T23:05:08.176Z,28.13
2023-04-17T23:07:35.738Z,27.40
2023-04-17T23:10:03.352Z,27.33
2023-04-17T23:12:32.453Z,24.13
2023-04-17T23:15:00.051Z,30.60
2023-04-17T23:17:27.740Z,25.03
2023-04-17T23:19:55.625Z,25.70
2023-04-17T23:22:23.335Z,28.33
2023-04-17T23:24:51.199Z,27.23
2023-04-17T23:27:18.784Z,27.07
2023-04-17T23:29:47.679Z,23.43
2023-04-17T23:32:16.234Z,28.63
2023-04-17T23:34:43.959Z,24.10
2023-04-17T23:37:11.851Z,25.07
2023-04-17T23:39:39.515Z,24.90
2023-04-17T23:42:08.025Z,24.20
2023-04-17T23:44:35.978Z,24.40
2023-04-17T23:47:05.228Z,21.43
2023-04-17T23:49:32.924Z,20.90
2023-04-17T23:52:00.573Z,20.97
2023-04-17T23:54:28.217Z,20.90
2023-04-17T23:56:56.447Z,24.03
2023-04-17T23:59:24.252Z,19.33
